createdAt,value
2018-07-23T00:00:52.477Z,15.57
2018-07-23T00:03:24.669Z,15.87
2018-07-23T00:05:54.148Z,19.83
2018-07-23T00:08:28.473Z,19.37
2018-07-23T00:11:21.331Z,19.23
2018-07-23T00:13:50.961Z,18.53
2018-07-23T00:16:23.021Z,17.43
2018-07-23T00:19:03.040Z,17.63
2018-07-23T00:21:36.372Z,20.10
2018-07-23T00:24:05.950Z,17.53
2018-07-23T00:26:40.141Z,23.93
2018-07-23T00:29:13.787Z,18.30
2018-07-23T00:31:43.341Z,19.17
2018-07-23T00:34:16.347Z,21.47
2018-07-23T00:36:44.731Z,20.03
2018-07-23T00:39:13.130Z,19.00
2018-07-23T00:41:43.890Z,17.33
2018-07-23T00:44:13.266Z,20.57
2018-07-23T00:46:45.368Z,20.37
2018-07-23T00:49:37.170Z,22.53
2018-07-23T00:52:19.256Z,20.33
2018-07-23T00:54:54.692Z,22.53
2018-07-23T00:57:25.286Z,24.73
2018-07-23T01:00:04.666Z,25.00
2018-07-23T01:02:47.178Z,24.50
2018-07-23T01:05:29.362Z,24.30
2018-07-23T01:08:03.348Z,25.73
2018-07-23T01:10:32.911Z,19.80
2018-07-23T01:13:01.315Z,16.07
2018-07-23T01:15:31.848Z,17.37
2018-07-23T01:18:01.499Z,16.67
2018-07-23T01:20:30.082Z,17.77
2018-07-23T01:22:58.512Z,19.90
2018-07-23T01:25:43.470Z,23.60
2018-07-23T01:28:15.575Z,24.60
2018-07-23T01:30:51.630Z,25.03
2018-07-23T01:33:32.538Z,24.60
2018-07-23T01:36:08.638Z,18.60
2018-07-23T01:38:38.262Z,21.53
2018-07-23T01:41:08.834Z,23.80
2018-07-23T01:43:51.561Z,26.53
2018-07-23T01:46:24.294Z,22.43
2018-07-23T01:51:45.396Z,23.27
2018-07-23T01:54:14.042Z,23.93
2018-07-23T01:56:46.118Z,22.90
2018-07-23T01:59:16.646Z,22.53
2018-07-23T02:01:47.146Z,23.80
2018-07-23T02:04:16.780Z,26.70
2018-07-23T02:06:45.474Z,29.50
2018-07-23T02:09:15.040Z,27.57
2018-07-23T02:11:43.724Z,26.43
2018-07-23T02:14:17.439Z,29.93
2018-07-23T02:17:04.538Z,26.00
2018-07-23T02:19:37.548Z,27.67
2018-07-23T02:22:07.424Z,27.30
2018-07-23T02:24:39.390Z,28.83
2018-07-23T02:27:28.064Z,26.73
2018-07-23T02:29:56.559Z,29.23
2018-07-23T02:32:25.110Z,26.27
2018-07-23T02:35:10.087Z,27.03
2018-07-23T02:37:44.276Z,26.87
2018-07-23T02:40:12.724Z,25.23
2018-07-23T02:42:41.442Z,26.33
2018-07-23T02:45:13.789Z,28.20
2018-07-23T02:47:44.286Z,24.87
2018-07-23T02:50:16.374Z,25.53
2018-07-23T02:52:46.910Z,23.97
2018-07-23T02:55:20.892Z,27.07
2018-07-23T02:58:11.620Z,28.27
2018-07-23T03:00:41.209Z,25.33
2018-07-23T03:03:17.287Z,23.67
2018-07-23T03:05:47.808Z,31.03
2018-07-23T03:08:33.041Z,25.93
2018-07-23T03:11:07.274Z,28.73
2018-07-23T03:13:42.208Z,25.90
2018-07-23T03:16:10.796Z,26.40
2018-07-23T03:18:39.171Z,27.10
2018-07-23T03:21:17.404Z,28.23
2018-07-23T03:23:58.090Z,25.60
2018-07-23T03:26:31.346Z,27.67
2018-07-23T03:29:04.064Z,27.10
2018-07-23T03:31:43.524Z,28.67
2018-07-23T03:34:22.931Z,25.43
2018-07-23T03:36:53.488Z,30.40
2018-07-23T03:39:25.540Z,28.53
2018-07-23T03:41:54.867Z,29.20
2018-07-23T03:44:23.744Z,29.33
2018-07-23T03:46:53.972Z,29.73
2018-07-23T03:49:23.410Z,30.00
2018-07-23T03:52:10.174Z,27.43
2018-07-23T03:54:39.746Z,29.93
2018-07-23T03:57:10.350Z,28.00
2018-07-23T03:59:39.000Z,29.83
2018-07-23T04:02:08.000Z,28.77
2018-07-23T04:04:40.268Z,26.77
2018-07-23T04:07:20.693Z,34.93
2018-07-23T04:09:58.952Z,28.43
2018-07-23T04:12:39.688Z,28.87
2018-07-23T04:15:14.542Z,31.63
2018-07-23T04:18:03.612Z,29.17
2018-07-23T04:20:36.636Z,36.60
2018-07-23T04:23:07.369Z,28.43
2018-07-23T04:25:39.285Z,27.37
2018-07-23T04:28:12.592Z,35.37
2018-07-23T04:30:45.366Z,29.93
2018-07-23T04:33:14.788Z,34.53
2018-07-23T04:35:44.188Z,37.13
2018-07-23T04:38:26.777Z,29.17
2018-07-23T04:40:57.122Z,32.43
2018-07-23T04:43:36.963Z,31.17
2018-07-23T04:46:11.166Z,30.60
2018-07-23T04:48:46.000Z,35.07
2018-07-23T04:51:14.380Z,30.93
2018-07-23T04:53:46.412Z,29.77
2018-07-23T04:56:25.530Z,31.10
2018-07-23T04:58:56.079Z,29.67
2018-07-23T05:01:24.507Z,31.93
2018-07-23T05:03:55.020Z,30.53
2018-07-23T05:06:34.142Z,37.17
2018-07-23T05:09:13.596Z,38.53
2018-07-23T05:11:42.268Z,31.50
2018-07-23T05:14:11.422Z,31.70
2018-07-23T05:16:45.599Z,29.97
2018-07-23T05:19:18.228Z,37.93
2018-07-23T05:22:05.004Z,33.63
2018-07-23T05:27:31.284Z,31.73
2018-07-23T05:30:11.854Z,35.20
2018-07-23T05:32:47.101Z,33.57
2018-07-23T05:35:20.362Z,34.77
2018-07-23T05:38:05.890Z,36.63
2018-07-23T05:40:39.868Z,34.80
2018-07-23T05:43:09.445Z,35.97
2018-07-23T05:45:37.867Z,37.67
2018-07-23T05:48:15.771Z,37.73
2018-07-23T05:50:50.427Z,38.40
2018-07-23T05:53:22.309Z,35.90
2018-07-23T05:55:50.664Z,32.07
2018-07-23T05:58:21.272Z,34.27
2018-07-23T06:00:58.245Z,34.40
2018-07-23T06:03:27.828Z,34.00
2018-07-23T06:06:12.606Z,33.33
2018-07-23T06:08:47.064Z,28.40
2018-07-23T06:11:15.918Z,33.10
2018-07-23T06:13:44.400Z,30.70
2018-07-23T06:16:14.050Z,30.20
2018-07-23T06:18:43.630Z,29.07
2018-07-23T06:21:16.287Z,33.13
2018-07-23T06:26:37.329Z,33.07
2018-07-23T06:29:09.381Z,34.00
2018-07-23T06:31:39.029Z,33.20
2018-07-23T06:34:18.082Z,32.63
2018-07-23T06:36:48.800Z,34.07
2018-07-23T06:39:23.551Z,35.43
2018-07-23T06:42:15.886Z,33.93
2018-07-23T06:44:49.492Z,32.97
2018-07-23T06:47:18.411Z,33.20
2018-07-23T06:52:22.138Z,36.40
2018-07-23T06:54:52.958Z,27.77
2018-07-23T06:57:22.323Z,28.20
2018-07-23T06:59:54.559Z,29.73
2018-07-23T07:02:29.090Z,25.77
2018-07-23T07:05:00.828Z,24.20
2018-07-23T07:07:34.302Z,24.10
2018-07-23T07:10:18.737Z,26.27
2018-07-23T07:12:58.489Z,18.17
2018-07-23T07:15:32.265Z,24.13
2018-07-23T07:18:13.310Z,22.23
2018-07-23T07:20:47.217Z,26.03
2018-07-23T07:23:22.061Z,23.47
2018-07-23T07:26:01.562Z,24.30
2018-07-23T07:28:38.198Z,22.20
2018-07-23T07:31:24.560Z,23.83
2018-07-23T07:33:55.196Z,23.50
2018-07-23T07:39:21.449Z,22.07
2018-07-23T07:42:01.847Z,23.63
2018-07-23T07:44:42.257Z,22.97
2018-07-23T07:47:24.377Z,23.37
2018-07-23T07:49:58.638Z,26.37
2018-07-23T07:52:34.135Z,25.47
2018-07-23T07:55:04.140Z,24.20
2018-07-23T07:57:33.702Z,26.73
2018-07-23T08:00:02.300Z,26.13
2018-07-23T08:02:31.692Z,26.50
2018-07-23T08:05:00.238Z,26.10
2018-07-23T08:07:41.212Z,25.83
2018-07-23T08:10:15.980Z,24.80
2018-07-23T08:12:55.182Z,28.97
2018-07-23T08:15:25.107Z,26.10
2018-07-23T08:17:55.749Z,28.97
2018-07-23T08:20:29.277Z,26.97
2018-07-23T08:23:00.168Z,25.50
2018-07-23T08:25:32.758Z,25.50
2018-07-23T08:28:13.178Z,25.40
2018-07-23T08:30:50.380Z,29.90
2018-07-23T08:33:26.168Z,31.93
2018-07-23T08:35:56.850Z,30.53
2018-07-23T08:38:28.333Z,31.07
2018-07-23T08:41:01.451Z,29.83
2018-07-23T08:43:30.446Z,30.40
2018-07-23T08:46:11.018Z,23.37
2018-07-23T08:48:42.013Z,25.57
2018-07-23T08:51:11.881Z,23.77
2018-07-23T08:53:40.580Z,22.10
2018-07-23T08:56:13.368Z,26.27
2018-07-23T08:58:47.018Z,20.77
2018-07-23T09:01:16.515Z,20.57
2018-07-23T09:03:48.311Z,21.43
2018-07-23T09:06:18.055Z,20.17
2018-07-23T09:08:47.689Z,23.03
2018-07-23T09:11:16.197Z,20.93
2018-07-23T09:13:45.416Z,25.70
2018-07-23T09:16:16.638Z,21.23
2018-07-23T09:18:45.322Z,20.33
2018-07-23T09:21:14.055Z,18.47
2018-07-23T09:23:42.995Z,26.77
2018-07-23T09:26:11.876Z,16.27
2018-07-23T09:28:46.718Z,21.90
2018-07-23T09:31:16.564Z,19.83
2018-07-23T09:33:56.914Z,21.20
2018-07-23T09:36:28.061Z,22.00
2018-07-23T09:39:07.828Z,23.73
2018-07-23T09:41:50.424Z,23.83
2018-07-23T09:44:21.214Z,24.43
2018-07-23T09:46:53.974Z,16.60
2018-07-23T09:49:22.858Z,16.60
2018-07-23T09:51:58.154Z,15.07
2018-07-23T09:54:28.728Z,19.57
2018-07-23T09:57:01.386Z,24.27
2018-07-23T09:59:34.009Z,20.47
2018-07-23T10:02:13.100Z,18.80
2018-07-23T10:04:49.816Z,15.87
2018-07-23T10:07:30.743Z,16.07
2018-07-23T10:10:15.088Z,15.93
2018-07-23T10:12:44.755Z,14.50
2018-07-23T10:15:20.174Z,15.13
2018-07-23T10:18:13.162Z,11.90
2018-07-23T10:20:58.409Z,14.53
2018-07-23T10:23:50.335Z,14.63
2018-07-23T10:26:26.501Z,12.47
2018-07-23T10:29:00.705Z,12.83
2018-07-23T10:31:33.419Z,11.07
2018-07-23T10:34:14.678Z,9.97
2018-07-23T10:36:49.752Z,10.93
2018-07-23T10:39:26.019Z,11.57
2018-07-23T10:42:08.210Z,12.10
2018-07-23T10:44:52.068Z,10.73
2018-07-23T10:47:22.857Z,10.63
2018-07-23T10:49:57.045Z,9.13
2018-07-23T10:52:27.971Z,11.47
2018-07-23T10:54:58.306Z,8.87
2018-07-23T10:57:37.413Z,9.63
2018-07-23T11:00:06.525Z,9.13
2018-07-23T11:02:41.309Z,8.23
2018-07-23T11:05:11.804Z,10.33
2018-07-23T11:07:40.956Z,12.73
2018-07-23T11:10:11.174Z,13.87
2018-07-23T11:12:42.795Z,13.30
2018-07-23T11:15:22.617Z,9.83
2018-07-23T11:17:58.585Z,8.53
2018-07-23T11:20:41.264Z,10.23
2018-07-23T11:23:16.814Z,10.77
2018-07-23T11:25:53.534Z,12.67
2018-07-23T11:28:28.032Z,11.63
2018-07-23T11:31:00.492Z,10.87
2018-07-23T11:33:30.025Z,9.27
2018-07-23T11:36:03.112Z,15.27
2018-07-23T11:38:47.308Z,9.17
2018-07-23T11:41:22.120Z,9.80
2018-07-23T11:43:57.468Z,11.97
2018-07-23T11:46:33.112Z,10.90
2018-07-23T11:49:34.997Z,8.67
2018-07-23T11:52:14.361Z,13.30
2018-07-23T11:54:48.264Z,10.47
2018-07-23T11:57:18.022Z,8.83
2018-07-23T11:59:58.980Z,8.93
2018-07-23T12:02:35.134Z,11.67
2018-07-23T12:05:06.118Z,11.67
2018-07-23T12:08:01.648Z,10.43
2018-07-23T12:10:39.751Z,8.83
2018-07-23T12:13:09.411Z,8.23
2018-07-23T12:15:43.198Z,8.90
2018-07-23T12:18:22.156Z,10.40
2018-07-23T12:20:51.786Z,6.90
2018-07-23T12:23:31.770Z,6.80
2018-07-23T12:26:02.332Z,7.97
2018-07-23T12:28:34.818Z,7.93
2018-07-23T12:31:05.225Z,7.90
2018-07-23T12:33:38.070Z,7.07
2018-07-23T12:36:10.218Z,8.43
2018-07-23T12:38:57.020Z,7.27
2018-07-23T12:41:27.881Z,10.23
2018-07-23T12:44:15.311Z,8.87
2018-07-23T12:47:03.354Z,6.37
2018-07-23T12:49:32.253Z,6.20
2018-07-23T12:52:08.762Z,7.57
2018-07-23T12:54:45.263Z,9.83
2018-07-23T12:57:24.149Z,8.00
2018-07-23T12:59:54.343Z,5.17
2018-07-23T13:02:25.345Z,6.07
2018-07-23T13:04:56.140Z,5.80
2018-07-23T13:07:24.842Z,6.00
2018-07-23T13:09:54.612Z,6.27
2018-07-23T13:12:28.076Z,6.60
2018-07-23T13:15:05.946Z,7.93
2018-07-23T13:17:44.944Z,7.67
2018-07-23T13:20:15.492Z,8.27
2018-07-23T13:22:51.242Z,7.30
2018-07-23T13:25:22.186Z,8.57
2018-07-23T13:28:43.171Z,12.50
2018-07-23T13:31:27.286Z,8.53
2018-07-23T13:34:10.008Z,10.90
2018-07-23T13:36:40.103Z,8.50
2018-07-23T13:39:17.963Z,8.77
2018-07-23T13:42:04.830Z,8.13
2018-07-23T13:44:34.162Z,7.37
2018-07-23T13:47:15.009Z,8.97
2018-07-23T13:49:49.077Z,9.30
2018-07-23T13:55:22.879Z,11.20
2018-07-23T13:58:01.622Z,8.57
2018-07-23T14:00:30.134Z,7.37
2018-07-23T14:03:00.334Z,8.57
2018-07-23T14:05:28.765Z,7.37
2018-07-23T14:11:02.408Z,6.20
2018-07-23T14:13:50.429Z,7.20
2018-07-23T14:16:22.301Z,7.23
2018-07-23T14:19:01.298Z,5.43
2018-07-23T14:21:29.843Z,5.23
2018-07-23T14:24:18.672Z,7.90
2018-07-23T14:26:54.513Z,9.27
2018-07-23T14:29:30.498Z,8.77
2018-07-23T14:32:10.219Z,9.60
2018-07-23T14:34:56.393Z,7.47
2018-07-23T14:37:42.625Z,7.63
2018-07-23T14:40:11.638Z,7.90
2018-07-23T14:42:47.019Z,6.63
2018-07-23T14:45:28.337Z,6.33
2018-07-23T14:47:57.125Z,5.83
2018-07-23T14:50:45.054Z,13.67
2018-07-23T14:53:13.777Z,7.80
2018-07-23T14:56:01.247Z,5.60
2018-07-23T14:58:38.512Z,5.40
2018-07-23T15:01:09.201Z,7.97
2018-07-23T15:03:43.475Z,6.33
2018-07-23T15:06:13.509Z,7.57
2018-07-23T15:08:52.003Z,9.10
2018-07-23T15:11:27.921Z,7.40
2018-07-23T15:14:03.529Z,6.67
2018-07-23T15:19:31.254Z,7.63
2018-07-23T15:22:19.289Z,7.63
2018-07-23T15:24:48.913Z,8.03
2018-07-23T15:27:19.512Z,8.13
2018-07-23T15:29:49.414Z,6.80
2018-07-23T15:32:30.422Z,7.17
2018-07-23T15:35:04.014Z,8.03
2018-07-23T15:37:35.643Z,6.20
2018-07-23T15:40:10.186Z,6.27
2018-07-23T15:42:42.394Z,14.67
2018-07-23T15:45:12.006Z,10.03
2018-07-23T15:47:51.000Z,7.77
2018-07-23T15:50:25.230Z,5.77
2018-07-23T15:53:04.411Z,5.53
2018-07-23T15:55:34.990Z,8.23
2018-07-23T15:58:17.715Z,6.10
2018-07-23T16:00:53.509Z,10.13
2018-07-23T16:03:23.105Z,6.93
2018-07-23T16:06:01.685Z,7.83
2018-07-23T16:08:32.379Z,6.27
2018-07-23T16:11:02.477Z,8.13
2018-07-23T16:13:34.337Z,8.77
2018-07-23T16:16:05.369Z,10.87
2018-07-23T16:18:39.821Z,8.40
2018-07-23T16:21:21.867Z,6.70
2018-07-23T16:23:55.144Z,6.80
2018-07-23T16:26:27.027Z,8.27
2018-07-23T16:29:04.661Z,6.43
2018-07-23T16:31:37.741Z,6.37
2018-07-23T16:34:18.643Z,6.10
2018-07-23T16:42:52.516Z,7.90
2018-07-23T16:45:29.818Z,6.37
2018-07-23T16:51:04.443Z,7.93
2018-07-23T16:53:44.510Z,7.50
2018-07-23T16:56:13.196Z,7.67
2018-07-23T16:58:48.904Z,7.23
2018-07-23T17:01:28.903Z,8.33
2018-07-23T17:04:12.007Z,7.23
2018-07-23T17:06:40.743Z,7.10
2018-07-23T17:09:12.437Z,7.43
2018-07-23T17:11:47.112Z,8.00
2018-07-23T17:14:21.169Z,8.27
2018-07-23T17:16:58.029Z,11.77
2018-07-23T17:19:26.821Z,8.10
2018-07-23T17:21:58.873Z,7.90
2018-07-23T17:24:31.575Z,8.10
2018-07-23T17:27:14.548Z,11.77
2018-07-23T17:29:53.143Z,9.37
2018-07-23T17:32:35.869Z,11.73
2018-07-23T17:35:05.313Z,10.20
2018-07-23T17:37:39.809Z,9.67
2018-07-23T17:40:20.414Z,8.63
2018-07-23T17:42:59.832Z,9.73
2018-07-23T17:48:30.928Z,9.00
2018-07-23T17:51:12.014Z,12.57
2018-07-23T17:53:42.440Z,9.53
2018-07-23T17:56:15.550Z,10.17
2018-07-23T17:58:45.717Z,10.03
2018-07-23T18:07:00.378Z,9.83
2018-07-23T18:09:38.668Z,9.00
2018-07-23T18:12:13.226Z,8.93
2018-07-23T18:14:48.258Z,9.80
2018-07-23T18:17:17.196Z,9.20
2018-07-23T18:19:48.257Z,10.13
2018-07-23T18:22:19.743Z,10.03
2018-07-23T18:24:48.651Z,10.73
2018-07-23T18:27:19.647Z,10.60
2018-07-23T18:29:49.195Z,9.83
2018-07-23T18:32:18.186Z,9.87
2018-07-23T18:34:46.924Z,12.07
2018-07-23T18:37:15.832Z,10.97
2018-07-23T18:39:45.879Z,10.43
2018-07-23T18:42:14.763Z,11.43
2018-07-23T18:44:44.090Z,13.53
2018-07-23T18:47:13.544Z,12.60
2018-07-23T18:49:52.256Z,14.60
2018-07-23T18:52:27.837Z,12.57
2018-07-23T18:54:59.659Z,12.63
2018-07-23T18:57:28.724Z,13.33
2018-07-23T18:59:58.108Z,14.07
2018-07-23T19:02:26.938Z,16.13
2018-07-23T19:04:55.655Z,15.90
2018-07-23T19:07:28.044Z,13.67
2018-07-23T19:10:03.753Z,14.10
2018-07-23T19:12:34.925Z,18.23
2018-07-23T19:15:06.067Z,13.73
2018-07-23T19:17:39.001Z,15.17
2018-07-23T19:20:07.863Z,12.57
2018-07-23T19:22:39.213Z,13.90
2018-07-23T19:25:10.422Z,13.93
2018-07-23T19:27:43.415Z,12.40
2018-07-23T19:30:14.444Z,12.90
2018-07-23T19:32:44.884Z,13.90
2018-07-23T19:35:14.337Z,14.47
2018-07-23T19:37:49.360Z,14.13
2018-07-23T19:40:19.543Z,18.00
2018-07-23T19:42:55.938Z,14.47
2018-07-23T19:45:24.724Z,14.33
2018-07-23T19:47:55.909Z,15.57
2018-07-23T19:50:25.836Z,14.80
2018-07-23T19:53:00.519Z,15.30
2018-07-23T19:55:35.220Z,16.33
2018-07-23T19:58:04.707Z,15.87
2018-07-23T20:00:37.269Z,23.67
2018-07-23T20:03:11.239Z,18.85
2018-07-23T20:05:44.883Z,21.53
2018-07-23T20:08:13.903Z,26.07
2018-07-23T20:10:43.789Z,23.30
2018-07-23T20:13:19.215Z,16.90
2018-07-23T20:15:52.164Z,13.90
2018-07-23T20:18:25.247Z,17.67
2018-07-23T20:20:58.515Z,14.50
2018-07-23T20:23:30.313Z,18.83
2018-07-23T20:26:05.435Z,18.10
2018-07-23T20:28:36.886Z,83.77
2018-07-23T20:31:09.785Z,28.20
2018-07-23T20:33:40.652Z,20.27
2018-07-23T20:36:10.685Z,19.53
2018-07-23T20:38:39.609Z,18.37
2018-07-23T20:41:13.707Z,13.17
2018-07-23T20:43:52.510Z,18.97
2018-07-23T20:46:22.232Z,16.83
2018-07-23T20:48:54.281Z,15.20
2018-07-23T20:51:23.893Z,26.80
2018-07-23T20:53:55.971Z,16.70
2018-07-23T20:56:28.174Z,17.83
2018-07-23T21:07:47.785Z,18.13
2018-07-23T21:10:17.800Z,19.07
2018-07-23T21:19:23.559Z,17.27
2018-07-23T21:27:55.721Z,16.37
2018-07-23T21:30:32.617Z,14.03
2018-07-23T21:35:54.254Z,15.83
2018-07-23T21:38:26.991Z,14.53
2018-07-23T21:58:19.791Z,15.17
2018-07-23T22:00:49.841Z,15.00
2018-07-23T22:12:12.613Z,18.73
2018-07-23T22:23:34.850Z,25.60
2018-07-23T23:45:16.926Z,20.90
2018-07-23T23:47:47.203Z,18.10
2018-07-23T23:53:14.378Z,21.17
2018-07-23T23:55:48.990Z,19.63
2018-07-23T23:58:19.016Z,18.00
